Time;durP1;ratioP1;P1;durP2;ratioP2;P2;SDS_P1;SDS_P2;PMS_P1;PMS_P2;Temp;Humidity;BMP_temperature;BMP_pressure;BME280_temperature;BME280_humidity;BME280_pressure;Samples;Min_cycle;Max_cycle;Signal;HPM_P1;HPM_P2
2023/01/23 03:01:42;;;;;;;28.37;25.57;;;0.60;99.90;;;;;;5464551;23;21015;-77
2023/01/23 03:04:09;;;;;;;26.77;24.13;;;0.70;99.90;;;;;;4953639;29;20457;-79
2023/01/23 03:06:37;;;;;;;28.07;25.03;;;0.60;99.90;;;;;;4949925;29;20459;-78
2023/01/23 03:09:10;;;;;;;27.93;25.13;;;0.70;99.90;;;;;;4966173;28;20466;-78
2023/01/23 03:11:39;;;;;;;26.57;23.93;;;0.60;99.90;;;;;;4944533;29;20484;-78
2023/01/23 03:14:21;;;;;;;28.10;25.20;;;0.60;99.90;;;;;;4945117;29;20479;-73
2023/01/23 03:16:51;;;;;;;25.43;22.73;;;0.70;99.90;;;;;;4933954;29;20433;-78
2023/01/23 03:19:21;;;;;;;27.77;25.07;;;0.70;99.90;;;;;;4945554;29;20553;-78
2023/01/23 03:21:50;;;;;;;28.57;25.57;;;0.70;99.90;;;;;;4948780;28;20851;-81
2023/01/23 03:24:18;;;;;;;28.53;25.67;;;0.70;99.90;;;;;;4935729;29;20461;-78
2023/01/23 03:26:49;;;;;;;28.27;25.40;;;0.70;99.90;;;;;;4926256;29;20459;-79
2023/01/23 03:32:06;;;;;;;27.07;24.27;;;0.70;99.90;;;;;;4921599;29;20465;-78
2023/01/23 03:34:33;;;;;;;27.97;25.13;;;0.70;99.90;;;;;;4947317;29;20445;-80
2023/01/23 03:37:02;;;;;;;27.37;24.73;;;0.70;99.90;;;;;;4925378;29;20882;-78
2023/01/23 03:42:17;;;;;;;27.03;24.23;;;0.70;99.90;;;;;;4929921;29;20501;-82
2023/01/23 03:44:46;;;;;;;27.10;24.33;;;0.60;99.90;;;;;;4939369;29;20466;-81
2023/01/23 03:47:14;;;;;;;27.70;24.90;;;0.60;99.90;;;;;;4955438;29;20985;-84
2023/01/23 03:49:41;;;;;;;28.17;25.23;;;0.60;99.90;;;;;;4936106;29;20442;-84
2023/01/23 03:52:08;;;;;;;26.77;23.97;;;0.60;99.90;;;;;;4956564;28;20474;-83
2023/01/23 03:54:35;;;;;;;27.10;24.40;;;0.60;99.90;;;;;;4955874;29;20461;-82
2023/01/23 03:57:05;;;;;;;27.67;24.83;;;0.60;99.90;;;;;;4924573;29;20500;-77
2023/01/23 03:59:47;;;;;;;27.03;24.43;;;0.60;99.90;;;;;;4922965;29;20445;-79
2023/01/23 04:02:17;;;;;;;26.13;23.57;;;0.60;99.90;;;;;;4913906;29;20490;-81
2023/01/23 04:04:44;;;;;;;27.20;24.40;;;0.70;99.90;;;;;;4953617;29;20446;-79
2023/01/23 04:07:11;;;;;;;26.13;23.73;;;0.60;99.90;;;;;;4949711;29;20475;-78
2023/01/23 04:09:40;;;;;;;28.47;25.57;;;0.60;99.90;;;;;;4949497;29;20513;-84
2023/01/23 04:12:07;;;;;;;31.50;26.17;;;0.60;99.90;;;;;;4925209;29;20478;-84
2023/01/23 04:14:39;;;;;;;26.27;23.67;;;0.60;99.90;;;;;;4953686;28;20458;-86
2023/01/23 04:17:07;;;;;;;26.93;24.20;;;0.60;99.90;;;;;;4952178;28;20468;-83
2023/01/23 04:19:35;;;;;;;28.00;25.20;;;0.60;99.90;;;;;;4956465;28;20569;-84
2023/01/23 04:22:03;;;;;;;27.73;24.93;;;0.60;99.90;;;;;;4953890;28;20475;-82
2023/01/23 04:24:35;;;;;;;27.70;24.77;;;0.60;99.90;;;;;;4953007;28;20516;-82
2023/01/23 04:27:02;;;;;;;27.53;24.67;;;0.60;99.90;;;;;;4953141;29;20459;-83
2023/01/23 04:29:29;;;;;;;28.13;25.37;;;0.60;99.90;;;;;;4935138;29;20449;-83
2023/01/23 04:31:57;;;;;;;27.70;24.80;;;0.60;99.90;;;;;;4933916;29;20467;-83
2023/01/23 04:34:24;;;;;;;30.13;26.97;;;0.60;99.90;;;;;;4957937;28;20979;-85
2023/01/23 04:36:56;;;;;;;27.67;24.87;;;0.60;99.90;;;;;;4954898;28;20452;-83
2023/01/23 04:39:23;;;;;;;28.33;25.07;;;0.60;99.90;;;;;;4950220;28;20919;-82
2023/01/23 04:41:51;;;;;;;28.00;25.20;;;0.60;99.90;;;;;;4935559;29;20472;-82
2023/01/23 04:44:37;;;;;;;27.17;24.37;;;0.60;99.90;;;;;;4930077;29;20473;-82
2023/01/23 04:47:24;;;;;;;26.27;23.67;;;0.60;99.90;;;;;;4937007;29;20521;-79
2023/01/23 04:49:51;;;;;;;28.00;25.13;;;0.60;99.90;;;;;;4948236;28;20458;-79
2023/01/23 04:52:20;;;;;;;27.80;24.70;;;0.60;99.90;;;;;;4947754;28;20540;-78
2023/01/23 04:54:54;;;;;;;28.37;25.37;;;0.60;99.90;;;;;;4948829;28;20474;-79
2023/01/23 04:57:21;;;;;;;27.77;24.90;;;0.60;99.90;;;;;;4934502;29;20450;-79
2023/01/23 04:59:52;;;;;;;28.43;25.47;;;0.60;99.90;;;;;;4955852;29;20517;-77
2023/01/23 05:02:20;;;;;;;29.00;25.97;;;0.60;99.90;;;;;;4961323;28;20572;-79
2023/01/23 05:04:48;;;;;;;26.63;23.80;;;0.60;99.90;;;;;;4961721;29;20473;-77
2023/01/23 05:07:16;;;;;;;28.90;25.93;;;0.60;99.90;;;;;;4960837;29;20483;-81
2023/01/23 05:09:54;;;;;;;27.37;24.80;;;0.60;99.90;;;;;;4945785;29;20438;-77
2023/01/23 05:12:22;;;;;;;27.83;24.93;;;0.60;99.90;;;;;;4945680;29;20481;-77
2023/01/23 05:14:49;;;;;;;27.07;24.50;;;0.60;99.90;;;;;;4965260;29;20452;-77
2023/01/23 05:17:16;;;;;;;27.67;24.97;;;0.60;99.90;;;;;;4964395;28;20454;-78
2023/01/23 05:19:50;;;;;;;26.57;23.93;;;0.60;99.90;;;;;;4964225;28;20475;-79
2023/01/23 05:22:17;;;;;;;28.63;25.57;;;0.60;99.90;;;;;;4947771;29;20481;-78
2023/01/23 05:24:44;;;;;;;29.20;26.10;;;0.60;99.90;;;;;;4970389;28;20481;-77
2023/01/23 05:27:14;;;;;;;28.50;25.57;;;0.60;99.90;;;;;;4954393;29;20452;-77
2023/01/23 05:29:44;;;;;;;26.13;23.53;;;0.60;99.90;;;;;;4962805;28;20462;-77
2023/01/23 05:32:16;;;;;;;26.37;23.73;;;0.60;99.90;;;;;;4962562;29;20490;-77
2023/01/23 05:34:43;;;;;;;26.57;24.00;;;0.60;99.90;;;;;;4948155;29;20442;-78
2023/01/23 05:37:30;;;;;;;28.93;25.97;;;0.60;99.90;;;;;;4944839;29;20549;-79
2023/01/23 05:40:07;;;;;;;27.97;24.97;;;0.70;99.90;;;;;;4931252;29;20855;-78
2023/01/23 05:42:53;;;;;;;28.53;25.73;;;0.70;99.90;;;;;;4935630;29;20950;-78
2023/01/23 05:45:47;;;;;;;28.67;25.77;;;0.70;99.90;;;;;;4923117;29;21034;-78
2023/01/23 05:48:24;;;;;;;28.40;25.57;;;0.60;99.90;;;;;;4946289;28;20454;-77
2023/01/23 05:50:51;;;;;;;27.53;24.83;;;0.60;99.90;;;;;;4932217;29;20831;-79
2023/01/23 05:53:20;;;;;;;29.23;26.13;;;0.60;99.90;;;;;;4951865;28;20455;-78
2023/01/23 05:55:47;;;;;;;28.07;25.10;;;0.60;99.90;;;;;;4937765;29;20501;-78
2023/01/23 05:58:16;;;;;;;28.73;25.67;;;0.60;99.90;;;;;;4932914;29;20481;-78
2023/01/23 06:01:16;;;;;;;28.10;25.30;;;0.60;99.90;;;;;;4943884;28;20488;-78
2023/01/23 06:04:02;;;;;;;27.83;24.93;;;0.70;99.90;;;;;;4932240;29;20525;-78
2023/01/23 06:06:36;;;;;;;27.73;24.87;;;0.60;99.90;;;;;;4948486;28;20493;-79
2023/01/23 06:09:03;;;;;;;28.13;25.37;;;0.60;99.90;;;;;;4932029;29;20445;-79
2023/01/23 06:11:30;;;;;;;27.20;24.43;;;0.60;99.90;;;;;;4922067;29;20469;-78
2023/01/23 06:13:58;;;;;;;29.37;26.33;;;0.60;99.90;;;;;;4949864;29;20456;-77
2023/01/23 06:16:25;;;;;;;28.20;25.40;;;0.60;99.90;;;;;;4948934;29;20524;-79
2023/01/23 06:18:52;;;;;;;28.73;25.83;;;0.60;99.90;;;;;;4934287;29;20483;-77
2023/01/23 06:21:19;;;;;;;27.67;24.87;;;0.60;99.90;;;;;;4951653;28;20465;-78
2023/01/23 06:23:47;;;;;;;28.03;25.13;;;0.60;99.90;;;;;;4931859;29;20464;-78
2023/01/23 06:26:15;;;;;;;27.97;25.20;;;0.60;99.90;;;;;;4923896;29;20462;-77
2023/01/23 06:28:43;;;;;;;28.90;25.83;;;0.60;99.90;;;;;;4950421;29;20442;-77
2023/01/23 06:31:12;;;;;;;29.10;26.20;;;0.60;99.90;;;;;;4926770;29;20476;-78
2023/01/23 06:33:50;;;;;;;27.97;25.07;;;0.60;99.90;;;;;;4924549;29;20460;-77
2023/01/23 06:36:18;;;;;;;29.93;26.80;;;0.60;99.90;;;;;;4947748;29;20880;-80
2023/01/23 06:38:45;;;;;;;30.40;26.40;;;0.70;99.90;;;;;;4930268;29;20556;-78
2023/01/23 06:41:13;;;;;;;27.50;24.60;;;0.70;99.90;;;;;;4948240;28;20484;-78
2023/01/23 06:43:46;;;;;;;30.80;26.27;;;0.60;99.90;;;;;;4950201;28;20846;-79
2023/01/23 06:46:21;;;;;;;27.50;24.60;;;0.60;99.90;;;;;;4936742;29;20446;-78
2023/01/23 06:48:48;;;;;;;26.73;24.13;;;0.60;99.90;;;;;;4947693;28;20489;-78
2023/01/23 06:51:15;;;;;;;27.03;24.17;;;0.60;99.90;;;;;;4944409;28;20482;-77
2023/01/23 06:53:44;;;;;;;28.37;25.40;;;0.60;99.90;;;;;;4928733;29;20631;-77
2023/01/23 06:56:12;;;;;;;27.20;24.37;;;0.60;99.90;;;;;;4926453;29;20465;-78
2023/01/23 06:58:39;;;;;;;27.20;24.50;;;0.60;99.90;;;;;;4947511;29;20524;-78
2023/01/23 07:01:17;;;;;;;28.20;25.20;;;0.70;99.90;;;;;;4921458;29;20490;-79
2023/01/23 07:04:08;;;;;;;29.33;25.10;;;0.70;99.90;;;;;;4932345;29;20468;-81
2023/01/23 07:06:37;;;;;;;27.37;24.47;;;0.70;99.90;;;;;;4951276;28;20463;-80
2023/01/23 07:09:04;;;;;;;28.93;24.63;;;0.70;99.90;;;;;;4934086;29;20497;-78
2023/01/23 07:11:32;;;;;;;27.80;24.80;;;0.70;99.90;;;;;;4935225;29;20480;-79
2023/01/23 07:14:00;;;;;;;28.63;25.63;;;0.70;99.90;;;;;;4951681;29;20446;-79
2023/01/23 07:16:29;;;;;;;27.20;24.40;;;0.70;99.90;;;;;;4948071;29;20519;-80
2023/01/23 07:18:57;;;;;;;29.43;24.73;;;0.70;99.90;;;;;;4931011;29;20477;-78
2023/01/23 07:21:26;;;;;;;27.17;24.27;;;0.70;99.90;;;;;;4949990;28;20569;-80
2023/01/23 07:23:53;;;;;;;29.57;26.37;;;0.70;99.90;;;;;;4933369;29;20453;-80
2023/01/23 07:26:20;;;;;;;28.30;25.30;;;0.70;99.90;;;;;;4947167;28;20461;-77
2023/01/23 07:28:46;;;;;;;27.43;24.57;;;0.60;99.90;;;;;;4932065;29;20862;-77
2023/01/23 07:31:13;;;;;;;29.07;25.13;;;0.60;99.90;;;;;;4933582;29;20462;-80
2023/01/23 07:33:40;;;;;;;28.83;25.53;;;0.60;99.90;;;;;;4928548;29;20449;-78
2023/01/23 07:36:08;;;;;;;27.73;24.80;;;0.60;99.90;;;;;;4934929;29;20942;-79
2023/01/23 07:38:36;;;;;;;27.40;24.50;;;0.60;99.90;;;;;;4926165;29;20445;-77
2023/01/23 07:41:03;;;;;;;26.47;23.83;;;0.60;99.90;;;;;;4931106;29;20465;-79
2023/01/23 07:43:30;;;;;;;30.33;25.33;;;0.70;99.90;;;;;;4929899;29;20522;-77
2023/01/23 07:45:59;;;;;;;29.50;25.67;;;0.60;99.90;;;;;;4928247;29;20491;-77
2023/01/23 07:48:27;;;;;;;27.30;24.50;;;0.60;99.90;;;;;;4937343;29;20440;-77
2023/01/23 07:50:53;;;;;;;28.57;25.30;;;0.60;99.90;;;;;;4931577;29;20453;-78
2023/01/23 07:53:20;;;;;;;29.63;24.77;;;0.60;99.90;;;;;;4945984;28;20460;-78
2023/01/23 07:55:48;;;;;;;26.53;23.50;;;0.60;99.90;;;;;;4945277;28;20512;-78
2023/01/23 07:58:15;;;;;;;27.23;23.80;;;0.60;99.90;;;;;;4933898;29;20471;-78
2023/01/23 08:00:42;;;;;;;25.43;22.83;;;0.70;99.90;;;;;;4933220;29;20473;-79
2023/01/23 08:03:09;;;;;;;26.93;23.53;;;0.80;99.90;;;;;;4927668;29;20859;-79
2023/01/23 08:05:35;;;;;;;26.60;23.60;;;0.80;99.90;;;;;;4949996;29;20454;-78
2023/01/23 08:08:02;;;;;;;25.83;22.73;;;0.80;99.90;;;;;;4934713;29;20431;-78
2023/01/23 08:10:29;;;;;;;26.57;23.87;;;0.80;99.90;;;;;;4930786;29;20502;-78
2023/01/23 08:12:57;;;;;;;25.07;22.37;;;0.90;99.90;;;;;;4929789;29;20474;-78
2023/01/23 08:15:24;;;;;;;25.03;22.37;;;0.90;99.90;;;;;;4949062;28;20455;-81
2023/01/23 08:17:51;;;;;;;24.90;22.40;;;0.90;99.90;;;;;;4924359;29;20504;-78
2023/01/23 08:20:18;;;;;;;26.23;23.53;;;1.00;99.90;;;;;;4922193;29;20489;-78
2023/01/23 08:22:46;;;;;;;25.47;22.87;;;1.00;99.90;;;;;;4930249;29;20495;-78
2023/01/23 08:25:13;;;;;;;25.77;22.53;;;1.10;99.90;;;;;;4930346;29;20464;-78
2023/01/23 08:27:40;;;;;;;25.67;22.80;;;1.10;99.90;;;;;;4938210;29;20438;-79
2023/01/23 08:30:10;;;;;;;24.43;22.03;;;1.10;99.90;;;;;;4935960;29;20434;-78
2023/01/23 08:32:37;;;;;;;26.37;23.63;;;1.20;99.90;;;;;;4935589;29;20977;-80
2023/01/23 08:35:05;;;;;;;25.67;22.93;;;1.20;99.90;;;;;;4933953;29;20451;-83
2023/01/23 08:37:33;;;;;;;25.73;23.00;;;1.20;99.90;;;;;;4948204;28;20989;-82
2023/01/23 08:40:00;;;;;;;26.27;23.53;;;1.30;99.90;;;;;;4953288;28;20848;-83
2023/01/23 08:42:26;;;;;;;23.63;21.20;;;1.30;99.90;;;;;;4950938;28;20522;-83
2023/01/23 08:44:53;;;;;;;25.37;22.87;;;1.30;99.90;;;;;;4951838;28;20449;-82
2023/01/23 08:47:22;;;;;;;26.27;22.93;;;1.30;99.90;;;;;;4939118;29;20481;-82
2023/01/23 08:49:49;;;;;;;25.50;22.73;;;1.30;99.90;;;;;;4933521;29;20457;-83
2023/01/23 08:52:15;;;;;;;25.63;23.03;;;1.30;99.90;;;;;;4908611;29;20483;-78
2023/01/23 08:54:42;;;;;;;26.13;23.43;;;1.40;99.90;;;;;;4911290;29;20454;-82
2023/01/23 08:57:09;;;;;;;26.47;23.60;;;1.40;99.90;;;;;;4923039;29;20518;-82
2023/01/23 08:59:36;;;;;;;29.70;24.70;;;1.30;99.90;;;;;;4927905;29;20217;-82
2023/01/23 09:02:03;;;;;;;25.53;22.83;;;1.30;99.90;;;;;;4922733;29;21070;-78
2023/01/23 09:04:31;;;;;;;25.07;22.47;;;1.30;99.90;;;;;;4942592;29;20451;-79
2023/01/23 09:06:58;;;;;;;27.10;23.67;;;1.40;99.90;;;;;;4926396;29;20463;-78
2023/01/23 09:09:24;;;;;;;24.10;21.53;;;1.40;99.90;;;;;;4927422;29;20487;-78
2023/01/23 09:11:51;;;;;;;25.23;21.43;;;1.50;99.90;;;;;;4930129;29;20479;-78
2023/01/23 09:14:18;;;;;;;26.27;22.63;;;1.60;99.90;;;;;;4949051;29;20478;-81
2023/01/23 09:16:46;;;;;;;24.27;21.67;;;1.60;99.90;;;;;;4937509;29;20530;-82
2023/01/23 09:19:14;;;;;;;25.43;22.13;;;1.60;99.90;;;;;;4936686;29;20290;-81
2023/01/23 09:21:42;;;;;;;25.37;21.87;;;1.70;99.90;;;;;;4921989;29;20828;-80
2023/01/23 09:24:09;;;;;;;27.57;23.47;;;1.70;99.90;;;;;;4931267;29;20549;-81
2023/01/23 09:26:36;;;;;;;25.27;22.57;;;1.60;99.90;;;;;;4914980;29;20451;-81
2023/01/23 09:29:03;;;;;;;24.73;22.17;;;1.60;99.90;;;;;;4945938;29;20938;-79
2023/01/23 09:31:30;;;;;;;25.50;22.53;;;1.70;99.90;;;;;;4938592;29;20511;-79
2023/01/23 09:33:57;;;;;;;24.87;22.23;;;1.60;99.90;;;;;;4928212;29;20453;-79
2023/01/23 09:36:26;;;;;;;24.57;22.07;;;1.60;99.90;;;;;;4912622;29;20447;-78
2023/01/23 09:38:54;;;;;;;25.33;22.73;;;1.70;99.90;;;;;;4935446;29;20502;-79
2023/01/23 09:41:26;;;;;;;24.93;22.33;;;1.80;99.90;;;;;;4934266;29;20592;-78
2023/01/23 09:43:59;;;;;;;26.33;23.33;;;1.90;99.90;;;;;;4938268;29;20286;-78
2023/01/23 09:46:32;;;;;;;26.83;23.77;;;1.70;99.90;;;;;;4935324;29;20199;-79
2023/01/23 09:49:03;;;;;;;24.90;22.00;;;1.80;99.90;;;;;;4928346;29;20195;-80
2023/01/23 09:51:40;;;;;;;26.23;22.83;;;1.70;99.90;;;;;;4922988;29;20235;-78
2023/01/23 09:54:28;;;;;;;27.87;23.83;;;1.70;99.90;;;;;;4933941;29;20195;-79
2023/01/23 09:56:56;;;;;;;27.53;24.07;;;1.70;99.90;;;;;;4937548;29;20253;-78
2023/01/23 09:59:29;;;;;;;26.27;23.47;;;1.70;99.90;;;;;;4934716;29;20447;-77
2023/01/23 10:01:56;;;;;;;25.43;22.67;;;1.80;99.90;;;;;;4915193;29;20488;-78
2023/01/23 10:04:23;;;;;;;26.80;22.77;;;2.00;99.90;;;;;;4927652;29;20207;-78
2023/01/23 10:07:13;;;;;;;25.87;22.57;;;2.10;99.90;;;;;;4928747;29;20200;-80
2023/01/23 10:09:56;;;;;;;26.17;22.93;;;2.10;99.90;;;;;;4927623;29;20196;-80
2023/01/23 10:12:37;;;;;;;24.17;21.67;;;2.10;99.90;;;;;;4949920;28;20229;-78
2023/01/23 10:15:20;;;;;;;25.73;22.83;;;2.10;99.90;;;;;;4938089;29;20278;-78
2023/01/23 10:17:57;;;;;;;24.10;21.53;;;2.00;99.90;;;;;;4945324;29;20200;-76
2023/01/23 10:20:45;;;;;;;24.27;21.77;;;2.10;99.90;;;;;;4940534;29;20218;-75
2023/01/23 10:23:24;;;;;;;24.57;22.00;;;2.20;99.90;;;;;;4929284;29;20200;-76
2023/01/23 10:25:53;;;;;;;23.47;20.97;;;2.30;99.90;;;;;;4945484;28;20207;-76
2023/01/23 10:28:29;;;;;;;24.03;21.57;;;2.40;99.90;;;;;;4934828;29;20213;-76
2023/01/23 10:31:00;;;;;;;24.03;21.50;;;2.50;99.90;;;;;;4932626;29;20223;-77
2023/01/23 10:33:37;;;;;;;23.73;21.40;;;2.50;99.90;;;;;;4928101;29;20565;-76
2023/01/23 10:36:13;;;;;;;23.40;21.00;;;2.50;99.90;;;;;;4934332;29;20206;-77
2023/01/23 10:38:45;;;;;;;21.93;19.63;;;2.40;99.90;;;;;;4932666;29;20211;-78
2023/01/23 10:41:18;;;;;;;22.90;20.63;;;2.20;99.90;;;;;;4943933;29;20318;-78
2023/01/23 10:43:47;;;;;;;22.40;20.20;;;2.10;99.90;;;;;;4918472;29;20255;-76
2023/01/23 10:46:15;;;;;;;21.97;19.77;;;2.20;99.90;;;;;;4946953;28;20298;-78
2023/01/23 10:48:46;;;;;;;21.20;19.10;;;2.30;99.90;;;;;;4922683;29;20199;-78
2023/01/23 10:51:31;;;;;;;21.80;19.70;;;2.30;99.90;;;;;;4933069;29;20764;-77
2023/01/23 10:54:13;;;;;;;21.93;19.93;;;2.30;99.90;;;;;;4933834;29;20227;-77
2023/01/23 10:56:49;;;;;;;23.37;21.07;;;2.30;99.90;;;;;;4920325;29;20195;-77
2023/01/23 10:59:26;;;;;;;21.73;19.53;;;2.10;99.90;;;;;;4951015;29;20592;-77
2023/01/23 11:02:04;;;;;;;22.10;19.90;;;2.20;99.90;;;;;;4922205;29;20219;-77
2023/01/23 11:04:35;;;;;;;20.40;18.50;;;2.30;99.90;;;;;;4923853;29;20207;-77
2023/01/23 11:07:09;;;;;;;21.27;19.07;;;2.30;99.90;;;;;;4929226;29;20676;-76
2023/01/23 11:09:53;;;;;;;20.97;18.87;;;2.20;99.90;;;;;;4929983;29;20209;-78
2023/01/23 11:12:23;;;;;;;21.77;19.73;;;2.30;99.90;;;;;;4944341;28;20231;-77
2023/01/23 11:14:51;;;;;;;21.27;19.10;;;2.40;99.90;;;;;;4930349;29;20207;-78
2023/01/23 11:17:24;;;;;;;22.30;20.20;;;2.50;99.90;;;;;;4914169;29;20213;-76
2023/01/23 11:19:53;;;;;;;21.23;19.33;;;2.40;99.90;;;;;;4941528;29;20219;-78
2023/01/23 11:22:36;;;;;;;22.50;20.30;;;2.40;99.90;;;;;;4941778;28;20275;-77
2023/01/23 11:25:27;;;;;;;21.67;19.57;;;2.30;99.90;;;;;;4930438;29;20214;-78
2023/01/23 11:27:58;;;;;;;22.07;19.80;;;2.20;99.90;;;;;;4931413;29;20208;-76
2023/01/23 11:30:34;;;;;;;22.83;20.43;;;2.10;99.90;;;;;;4933745;29;20206;-81
2023/01/23 11:33:10;;;;;;;22.63;20.40;;;2.10;99.90;;;;;;4930966;29;20219;-82
2023/01/23 11:35:50;;;;;;;22.90;20.43;;;2.00;99.90;;;;;;4923419;29;20246;-82
2023/01/23 11:38:22;;;;;;;22.10;20.00;;;1.90;99.90;;;;;;4933918;29;20446;-82
2023/01/23 11:40:49;;;;;;;23.60;21.33;;;1.90;99.90;;;;;;4925261;29;20231;-81
2023/01/23 11:43:18;;;;;;;22.07;19.87;;;1.90;99.90;;;;;;4950008;29;20240;-80
2023/01/23 11:45:57;;;;;;;23.57;21.17;;;2.00;99.90;;;;;;4925780;29;20251;-81
2023/01/23 11:48:36;;;;;;;23.70;21.07;;;2.00;99.90;;;;;;4922934;29;20211;-81
2023/01/23 11:51:11;;;;;;;25.73;21.60;;;2.10;99.90;;;;;;4944673;28;20219;-82
2023/01/23 11:53:44;;;;;;;23.40;20.90;;;2.00;99.90;;;;;;4943435;29;20261;-82
2023/01/23 11:56:49;;;;;;;23.57;21.27;;;2.10;99.90;;;;;;4928357;29;20271;-80
2023/01/23 11:59:47;;;;;;;23.63;21.33;;;2.10;99.90;;;;;;4921457;29;20195;-80
2023/01/23 12:02:43;;;;;;;22.70;20.30;;;2.30;99.90;;;;;;4910475;29;20230;-82
2023/01/23 12:05:29;;;;;;;24.60;22.07;;;2.50;99.90;;;;;;4949447;28;20240;-80
2023/01/23 12:08:05;;;;;;;23.30;20.83;;;2.80;99.90;;;;;;4934036;29;20211;-81
2023/01/23 12:10:46;;;;;;;22.57;20.40;;;3.00;99.90;;;;;;4913898;29;20199;-81
2023/01/23 12:13:38;;;;;;;23.13;20.77;;;3.30;99.90;;;;;;4925695;29;20203;-83
2023/01/23 12:16:17;;;;;;;23.17;20.77;;;3.20;99.90;;;;;;4937093;29;20199;-82
2023/01/23 12:18:55;;;;;;;23.60;21.33;;;3.00;99.90;;;;;;4933143;29;20251;-81
2023/01/23 12:21:33;;;;;;;23.70;21.30;;;2.90;99.90;;;;;;4931879;29;20306;-83
2023/01/23 12:24:17;;;;;;;26.57;22.00;;;3.10;99.90;;;;;;4932166;29;20259;-81
2023/01/23 12:26:58;;;;;;;23.90;21.50;;;3.10;99.90;;;;;;4939116;29;20199;-83
2023/01/23 12:29:57;;;;;;;23.07;20.87;;;3.20;99.90;;;;;;4935622;29;20270;-82
2023/01/23 12:32:47;;;;;;;24.57;21.90;;;3.30;99.90;;;;;;4932023;29;20215;-82
2023/01/23 12:35:28;;;;;;;23.10;20.80;;;3.50;99.90;;;;;;4946168;29;20674;-82
2023/01/23 12:38:13;;;;;;;23.40;20.93;;;3.60;99.90;;;;;;4933426;29;20204;-83
2023/01/23 12:40:44;;;;;;;24.10;21.53;;;3.50;99.90;;;;;;4922687;29;20272;-82
2023/01/23 12:43:16;;;;;;;22.63;20.23;;;3.50;99.90;;;;;;4932993;29;20681;-82
2023/01/23 12:45:49;;;;;;;23.37;20.97;;;3.40;99.90;;;;;;4937566;29;20191;-82
2023/01/23 12:48:23;;;;;;;21.70;19.37;;;3.40;99.90;;;;;;4952978;29;20204;-83
2023/01/23 12:50:54;;;;;;;22.93;20.57;;;3.20;99.90;;;;;;4942028;28;20310;-81
2023/01/23 12:53:22;;;;;;;23.27;20.87;;;3.30;99.90;;;;;;4930452;29;20211;-81
2023/01/23 12:55:58;;;;;;;23.57;21.07;;;3.30;99.90;;;;;;4950114;28;20203;-82
2023/01/23 12:58:28;;;;;;;23.43;20.97;;;3.10;99.90;;;;;;4948593;28;20207;-81
2023/01/23 13:01:12;;;;;;;23.93;21.43;;;3.10;99.90;;;;;;4927410;29;20235;-82
2023/01/23 13:03:55;;;;;;;23.97;21.57;;;3.00;99.90;;;;;;4921045;29;20199;-82
2023/01/23 13:06:43;;;;;;;23.40;20.90;;;2.90;99.90;;;;;;4932306;29;20204;-81
2023/01/23 13:09:21;;;;;;;22.87;20.57;;;2.90;99.90;;;;;;4945784;28;20228;-81
2023/01/23 13:12:04;;;;;;;23.43;21.20;;;2.90;99.90;;;;;;4933388;29;20223;-87
2023/01/23 13:14:45;;;;;;;23.37;20.87;;;2.90;99.90;;;;;;4923384;29;20206;-80
2023/01/23 13:17:30;;;;;;;22.17;20.07;;;2.80;99.90;;;;;;4949474;29;20630;-80
2023/01/23 13:23:28;;;;;;;22.47;20.07;;;2.90;99.90;;;;;;4917899;29;20211;-85
2023/01/23 13:26:29;;;;;;;23.13;20.80;;;3.10;99.90;;;;;;4950778;29;20207;-81
2023/01/23 13:29:00;;;;;;;22.07;19.90;;;3.10;99.90;;;;;;4907306;29;20204;-81
2023/01/23 13:31:45;;;;;;;24.53;22.00;;;3.10;99.90;;;;;;4921433;29;20758;-81
2023/01/23 13:34:43;;;;;;;23.37;21.13;;;3.10;99.90;;;;;;4936243;29;20219;-82
2023/01/23 13:37:56;;;;;;;22.00;19.80;;;3.00;99.90;;;;;;4942613;29;20704;-81
2023/01/23 13:40:24;;;;;;;22.50;20.30;;;3.00;99.90;;;;;;4895032;29;20227;-81
2023/01/23 13:42:51;;;;;;;21.73;19.60;;;3.00;99.90;;;;;;4920849;29;20207;-80
2023/01/23 13:45:29;;;;;;;22.57;20.17;;;3.10;99.90;;;;;;4942531;28;20215;-82
2023/01/23 13:51:20;;;;;;;22.37;20.20;;;3.20;99.90;;;;;;4919481;29;20262;-83
2023/01/23 13:56:47;;;;;;;22.60;20.30;;;3.20;99.90;;;;;;4931624;29;20204;-78
2023/01/23 13:59:27;;;;;;;21.97;19.83;;;3.00;99.90;;;;;;4915367;29;20212;-77
2023/01/23 14:05:14;;;;;;;22.60;20.33;;;3.10;99.90;;;;;;4917663;29;20206;-78
2023/01/23 14:07:49;;;;;;;22.43;20.10;;;3.20;99.90;;;;;;4920687;29;20251;-76
2023/01/23 14:10:24;;;;;;;20.90;18.83;;;3.20;99.90;;;;;;4920958;29;20275;-80
2023/01/23 14:12:51;;;;;;;22.43;20.07;;;3.30;99.90;;;;;;4913597;29;20207;-82
2023/01/23 14:18:18;;;;;;;22.20;20.07;;;3.30;99.90;;;;;;4912529;29;20200;-83
2023/01/23 14:20:46;;;;;;;21.67;19.57;;;3.30;99.90;;;;;;4911092;29;20243;-82
2023/01/23 14:23:27;;;;;;;21.00;19.07;;;3.20;99.90;;;;;;4912634;29;20381;-83
2023/01/23 14:25:55;;;;;;;22.60;20.30;;;3.20;99.90;;;;;;4916793;29;20214;-83
2023/01/23 14:28:22;;;;;;;22.17;19.97;;;3.10;99.90;;;;;;4927066;29;20215;-82
2023/01/23 14:30:57;;;;;;;23.07;20.17;;;3.10;99.90;;;;;;4912132;29;20225;-84
2023/01/23 14:33:24;;;;;;;21.93;19.80;;;3.10;99.90;;;;;;4927088;29;20203;-83
2023/01/23 14:35:52;;;;;;;22.67;20.33;;;3.00;99.90;;;;;;4926355;28;20216;-82
2023/01/23 14:38:26;;;;;;;23.03;19.93;;;3.00;99.90;;;;;;4926986;29;20219;-84
2023/01/23 14:40:55;;;;;;;22.03;19.73;;;2.90;99.90;;;;;;4913747;29;20211;-84
2023/01/23 14:43:25;;;;;;;21.80;19.53;;;2.90;99.90;;;;;;4928816;29;20203;-82
2023/01/23 14:45:59;;;;;;;21.73;19.73;;;2.80;99.90;;;;;;4942542;29;20197;-85
2023/01/23 14:48:27;;;;;;;20.37;18.47;;;2.80;99.90;;;;;;4930274;29;20215;-84
2023/01/23 14:51:03;;;;;;;22.07;19.87;;;2.70;99.90;;;;;;4932620;29;20220;-79
2023/01/23 14:53:29;;;;;;;21.67;19.47;;;2.60;99.90;;;;;;4917438;29;20484;-78
2023/01/23 14:56:00;;;;;;;21.67;19.57;;;2.60;99.90;;;;;;4927862;29;20214;-78
2023/01/23 14:58:28;;;;;;;21.97;19.83;;;2.60;99.90;;;;;;4940164;29;20203;-78
2023/01/23 15:00:56;;;;;;;21.97;19.67;;;2.60;99.90;;;;;;4925355;29;20230;-75
2023/01/23 15:03:40;;;;;;;22.90;19.27;;;2.50;99.90;;;;;;4923631;29;20702;-82
2023/01/23 15:06:15;;;;;;;20.70;18.80;;;2.50;99.90;;;;;;4939915;28;20200;-84
2023/01/23 15:08:42;;;;;;;21.73;19.53;;;2.50;99.90;;;;;;4951209;28;20199;-84
2023/01/23 15:11:12;;;;;;;21.33;19.23;;;2.40;99.90;;;;;;4927817;29;20264;-83
2023/01/23 15:13:45;;;;;;;22.17;20.03;;;2.40;99.90;;;;;;4935417;29;20207;-82
2023/01/23 15:16:15;;;;;;;20.73;18.63;;;2.50;99.90;;;;;;4950848;28;20196;-82
2023/01/23 15:18:53;;;;;;;20.90;18.90;;;2.50;99.90;;;;;;4930603;29;20192;-80
2023/01/23 15:21:27;;;;;;;21.17;19.13;;;2.40;99.90;;;;;;4913845;29;20227;-83
2023/01/23 15:24:05;;;;;;;21.27;19.27;;;2.40;99.90;;;;;;4923844;29;20214;-83
2023/01/23 15:26:36;;;;;;;23.10;20.67;;;2.40;99.90;;;;;;4920818;29;20598;-83
2023/01/23 15:29:16;;;;;;;22.87;20.67;;;2.40;99.90;;;;;;4933934;29;20278;-82
2023/01/23 15:31:45;;;;;;;22.60;20.50;;;2.40;99.90;;;;;;4925457;29;20230;-82
2023/01/23 15:34:22;;;;;;;22.47;20.17;;;2.40;99.90;;;;;;4932240;29;20629;-83
2023/01/23 15:36:50;;;;;;;21.07;19.13;;;2.40;99.90;;;;;;4932243;29;20206;-83
2023/01/23 15:39:20;;;;;;;22.97;20.80;;;2.40;99.90;;;;;;4953565;28;20203;-83
2023/01/23 15:41:51;;;;;;;21.53;19.43;;;2.40;99.90;;;;;;4925603;29;20220;-82
2023/01/23 15:44:20;;;;;;;22.33;20.23;;;2.40;99.90;;;;;;4953734;28;20215;-80
2023/01/23 15:46:47;;;;;;;23.67;21.17;;;2.40;99.90;;;;;;4927461;29;20448;-79
2023/01/23 15:49:14;;;;;;;22.40;20.10;;;2.40;99.90;;;;;;4930017;29;20203;-83
2023/01/23 15:51:40;;;;;;;23.33;20.93;;;2.30;99.90;;;;;;4950034;28;20518;-82
2023/01/23 15:54:15;;;;;;;23.20;21.00;;;2.30;99.90;;;;;;4945475;28;20223;-82
2023/01/23 15:56:43;;;;;;;23.87;21.57;;;2.30;99.90;;;;;;4934236;29;20450;-82
2023/01/23 15:59:15;;;;;;;23.50;21.20;;;2.30;99.90;;;;;;4946113;28;20933;-82
2023/01/23 16:01:42;;;;;;;23.27;21.07;;;2.30;99.90;;;;;;4936115;29;20493;-81
2023/01/23 16:04:09;;;;;;;23.57;21.23;;;2.30;99.90;;;;;;4946476;29;20734;-80
2023/01/23 16:06:36;;;;;;;23.93;21.53;;;2.30;99.90;;;;;;4924473;29;20491;-81
2023/01/23 16:09:04;;;;;;;23.53;21.17;;;2.30;99.90;;;;;;4937802;29;20490;-81
2023/01/23 16:11:33;;;;;;;23.40;21.07;;;2.30;99.90;;;;;;4926591;29;20471;-82
2023/01/23 16:14:01;;;;;;;23.27;20.97;;;2.30;99.90;;;;;;4930565;29;20458;-82
2023/01/23 16:16:29;;;;;;;23.37;20.87;;;2.30;99.90;;;;;;4931149;29;20206;-76
2023/01/23 16:18:56;;;;;;;23.33;21.13;;;2.30;99.90;;;;;;4931882;28;20551;-76
2023/01/23 16:21:29;;;;;;;23.47;21.07;;;2.30;99.90;;;;;;4908711;29;20583;-76
2023/01/23 16:23:57;;;;;;;22.80;20.70;;;2.20;99.90;;;;;;4928175;29;20212;-77